sensor_id;sensor_type;location;lat;lon;timestamp;pressure;altitude;pressure_sealevel;temperature;humidity
64886;BME280;51514;52.206;5.114;2023-02-07T00:00:00;104119.16;;;2.70;79.54
64886;BME280;51514;52.206;5.114;2023-02-07T00:02:26;104119.09;;;2.73;79.49
64886;BME280;51514;52.206;5.114;2023-02-07T00:04:51;104111.94;;;2.75;78.80
64886;BME280;51514;52.206;5.114;2023-02-07T00:07:16;104118.91;;;2.82;79.03
64886;BME280;51514;52.206;5.114;2023-02-07T00:09:42;104119.84;;;2.81;79.50
64886;BME280;51514;52.206;5.114;2023-02-07T00:12:07;104110.19;;;2.74;79.09
64886;BME280;51514;52.206;5.114;2023-02-07T00:14:32;104109.34;;;2.72;78.83
64886;BME280;51514;52.206;5.114;2023-02-07T00:16:58;104112.06;;;2.70;78.53
64886;BME280;51514;52.206;5.114;2023-02-07T00:19:23;104108.63;;;2.62;79.23
64886;BME280;51514;52.206;5.114;2023-02-07T00:21:48;104109.72;;;2.50;79.39
64886;BME280;51514;52.206;5.114;2023-02-07T00:24:14;104104.53;;;2.43;79.24
64886;BME280;51514;52.206;5.114;2023-02-07T00:26:39;104101.81;;;2.46;79.16
64886;BME280;51514;52.206;5.114;2023-02-07T00:29:05;104104.31;;;2.55;78.97
64886;BME280;51514;52.206;5.114;2023-02-07T00:31:32;104109.50;;;2.63;78.76
64886;BME280;51514;52.206;5.114;2023-02-07T00:34:00;104112.06;;;2.69;79.41
64886;BME280;51514;52.206;5.114;2023-02-07T00:36:28;104103.09;;;2.73;78.95
64886;BME280;51514;52.206;5.114;2023-02-07T00:38:59;104094.19;;;2.74;78.79
64886;BME280;51514;52.206;5.114;2023-02-07T00:41:26;104096.78;;;2.78;78.73
64886;BME280;51514;52.206;5.114;2023-02-07T00:43:51;104096.81;;;2.77;78.16
64886;BME280;51514;52.206;5.114;2023-02-07T00:46:17;104101.19;;;2.81;78.37
64886;BME280;51514;52.206;5.114;2023-02-07T00:48:43;104106.53;;;2.81;78.11
64886;BME280;51514;52.206;5.114;2023-02-07T00:51:10;104103.84;;;2.81;78.50
64886;BME280;51514;52.206;5.114;2023-02-07T00:53:36;104104.78;;;2.78;78.80
64886;BME280;51514;52.206;5.114;2023-02-07T00:56:03;104101.25;;;2.78;78.32
64886;BME280;51514;52.206;5.114;2023-02-07T00:58:28;104110.13;;;2.77;78.40
64886;BME280;51514;52.206;5.114;2023-02-07T01:00:54;104102.16;;;2.77;78.23
64886;BME280;51514;52.206;5.114;2023-02-07T01:03:19;104101.25;;;2.78;78.64
64886;BME280;51514;52.206;5.114;2023-02-07T01:05:45;104098.56;;;2.78;78.64
64886;BME280;51514;52.206;5.114;2023-02-07T01:08:11;104100.34;;;2.79;78.78
64886;BME280;51514;52.206;5.114;2023-02-07T01:10:39;104104.78;;;2.78;78.64
64886;BME280;51514;52.206;5.114;2023-02-07T01:13:05;104103.00;;;2.79;78.17
64886;BME280;51514;52.206;5.114;2023-02-07T01:15:30;104107.44;;;2.78;78.04
64886;BME280;51514;52.206;5.114;2023-02-07T01:17:55;104108.38;;;2.76;78.03
64886;BME280;51514;52.206;5.114;2023-02-07T01:20:21;104113.72;;;2.76;78.87
64886;BME280;51514;52.206;5.114;2023-02-07T01:22:46;104111.94;;;2.75;78.13
64886;BME280;51514;52.206;5.114;2023-02-07T01:25:11;104112.88;;;2.72;79.04
64886;BME280;51514;52.206;5.114;2023-02-07T01:27:37;104111.97;;;2.73;78.39
64886;BME280;51514;52.206;5.114;2023-02-07T01:30:03;104114.66;;;2.72;78.38
64886;BME280;51514;52.206;5.114;2023-02-07T01:32:31;104108.66;;;2.61;78.81
64886;BME280;51514;52.206;5.114;2023-02-07T01:34:56;104108.00;;;2.48;78.73
64886;BME280;51514;52.206;5.114;2023-02-07T01:37:22;104104.72;;;2.31;79.28
64886;BME280;51514;52.206;5.114;2023-02-07T01:39:47;104110.22;;;2.22;79.17
64886;BME280;51514;52.206;5.114;2023-02-07T01:42:13;104109.25;;;2.27;79.82
64886;BME280;51514;52.206;5.114;2023-02-07T01:47:04;104111.22;;;2.16;80.22
64886;BME280;51514;52.206;5.114;2023-02-07T01:49:33;104105.97;;;2.08;79.99
64886;BME280;51514;52.206;5.114;2023-02-07T01:52:09;104110.50;;;2.05;80.25
64886;BME280;51514;52.206;5.114;2023-02-07T01:54:35;104111.47;;;1.98;80.68
64886;BME280;51514;52.206;5.114;2023-02-07T01:57:05;104115.09;;;1.94;81.13
64886;BME280;51514;52.206;5.114;2023-02-07T01:59:33;104112.34;;;1.98;81.41
64886;BME280;51514;52.206;5.114;2023-02-07T02:02:01;104109.63;;;2.03;81.20
64886;BME280;51514;52.206;5.114;2023-02-07T02:04:28;104107.91;;;2.00;81.64
64886;BME280;51514;52.206;5.114;2023-02-07T02:06:54;104103.41;;;2.05;81.94
64886;BME280;51514;52.206;5.114;2023-02-07T02:09:20;104099.78;;;2.08;81.46
64886;BME280;51514;52.206;5.114;2023-02-07T02:17:18;104103.63;;;1.89;81.82
64886;BME280;51514;52.206;5.114;2023-02-07T02:25:20;104115.84;;;2.02;81.31
64886;BME280;51514;52.206;5.114;2023-02-07T02:33:27;104112.84;;;2.23;81.23
64886;BME280;51514;52.206;5.114;2023-02-07T02:38:44;104112.69;;;2.32;81.13
64886;BME280;51514;52.206;5.114;2023-02-07T02:41:16;104102.94;;;2.33;80.22
64886;BME280;51514;52.206;5.114;2023-02-07T02:43:46;104110.09;;;2.28;80.35
64886;BME280;51514;52.206;5.114;2023-02-07T02:46:20;104108.47;;;2.20;80.52
64886;BME280;51514;52.206;5.114;2023-02-07T02:48:46;104114.78;;;2.15;80.15
64886;BME280;51514;52.206;5.114;2023-02-07T02:51:12;104105.25;;;1.99;80.43
64886;BME280;51514;52.206;5.114;2023-02-07T02:53:37;104116.16;;;1.83;80.87
64886;BME280;51514;52.206;5.114;2023-02-07T02:59:08;104122.59;;;1.64;80.56
64886;BME280;51514;52.206;5.114;2023-02-07T03:08:02;104102.41;;;1.51;80.16
64886;BME280;51514;52.206;5.114;2023-02-07T03:10:47;104106.75;;;1.58;80.88
64886;BME280;51514;52.206;5.114;2023-02-07T03:13:22;104111.94;;;1.67;81.24
64886;BME280;51514;52.206;5.114;2023-02-07T03:16:10;104108.25;;;1.74;80.42
64886;BME280;51514;52.206;5.114;2023-02-07T03:24:03;104095.38;;;1.47;80.67
64886;BME280;51514;52.206;5.114;2023-02-07T03:26:29;104095.34;;;1.49;80.77
64886;BME280;51514;52.206;5.114;2023-02-07T03:28:57;104099.63;;;1.60;80.62
64886;BME280;51514;52.206;5.114;2023-02-07T03:31:24;104102.16;;;1.69;79.88
64886;BME280;51514;52.206;5.114;2023-02-07T03:33:57;104095.09;;;1.65;79.43
64886;BME280;51514;52.206;5.114;2023-02-07T03:36:30;104097.72;;;1.68;79.51
64886;BME280;51514;52.206;5.114;2023-02-07T03:38:58;104101.16;;;1.76;79.76
64886;BME280;51514;52.206;5.114;2023-02-07T03:41:31;104100.19;;;1.82;80.42
64886;BME280;51514;52.206;5.114;2023-02-07T03:43:59;104098.50;;;1.75;79.58
64886;BME280;51514;52.206;5.114;2023-02-07T03:46:33;104101.31;;;1.66;79.54
64886;BME280;51514;52.206;5.114;2023-02-07T03:48:59;104097.00;;;1.56;79.90
64886;BME280;51514;52.206;5.114;2023-02-07T03:51:25;104100.59;;;1.52;80.54
64886;BME280;51514;52.206;5.114;2023-02-07T03:53:50;104094.44;;;1.51;80.48
64886;BME280;51514;52.206;5.114;2023-02-07T03:56:15;104096.97;;;1.59;80.14
64886;BME280;51514;52.206;5.114;2023-02-07T03:58:41;104107.53;;;1.65;79.76
64886;BME280;51514;52.206;5.114;2023-02-07T04:01:06;104104.03;;;1.61;79.83
64886;BME280;51514;52.206;5.114;2023-02-07T04:03:31;104099.69;;;1.54;80.03
64886;BME280;51514;52.206;5.114;2023-02-07T04:05:56;104087.28;;;1.53;80.01
64886;BME280;51514;52.206;5.114;2023-02-07T04:08:22;104093.59;;;1.46;81.55
64886;BME280;51514;52.206;5.114;2023-02-07T04:10:56;104081.28;;;1.40;82.43
64886;BME280;51514;52.206;5.114;2023-02-07T04:13:21;104089.31;;;1.34;81.48
64886;BME280;51514;52.206;5.114;2023-02-07T04:15:47;104086.63;;;1.37;81.31
64886;BME280;51514;52.206;5.114;2023-02-07T04:18:12;104097.13;;;1.48;81.15
64886;BME280;51514;52.206;5.114;2023-02-07T04:20:37;104087.44;;;1.41;81.04
64886;BME280;51514;52.206;5.114;2023-02-07T04:23:03;104087.56;;;1.35;81.04
64886;BME280;51514;52.206;5.114;2023-02-07T04:25:28;104094.50;;;1.45;81.41
64886;BME280;51514;52.206;5.114;2023-02-07T04:27:53;104080.19;;;1.55;81.08
64886;BME280;51514;52.206;5.114;2023-02-07T04:30:19;104076.66;;;1.53;80.99
64886;BME280;51514;52.206;5.114;2023-02-07T04:32:44;104082.78;;;1.61;81.22
64886;BME280;51514;52.206;5.114;2023-02-07T04:35:09;104088.00;;;1.66;80.36
64886;BME280;51514;52.206;5.114;2023-02-07T04:37:35;104079.13;;;1.68;80.22
64886;BME280;51514;52.206;5.114;2023-02-07T04:40:00;104080.84;;;1.72;80.03
64886;BME280;51514;52.206;5.114;2023-02-07T04:42:25;104090.53;;;1.73;79.51
64886;BME280;51514;52.206;5.114;2023-02-07T04:44:51;104091.41;;;1.75;80.04
64886;BME280;51514;52.206;5.114;2023-02-07T04:47:16;104071.03;;;1.74;79.86
64886;BME280;51514;52.206;5.114;2023-02-07T04:49:41;104080.84;;;1.71;81.07
64886;BME280;51514;52.206;5.114;2023-02-07T04:52:07;104078.19;;;1.72;81.41
64886;BME280;51514;52.206;5.114;2023-02-07T04:54:32;104089.63;;;1.76;81.74
64886;BME280;51514;52.206;5.114;2023-02-07T04:56:57;104073.69;;;1.74;83.66
64886;BME280;51514;52.206;5.114;2023-02-07T04:59:23;104081.59;;;1.80;83.10
64886;BME280;51514;52.206;5.114;2023-02-07T05:01:48;104084.25;;;1.80;82.76
64886;BME280;51514;52.206;5.114;2023-02-07T05:04:13;104073.66;;;1.77;83.83
64886;BME280;51514;52.206;5.114;2023-02-07T05:06:39;104069.22;;;1.76;83.73
64886;BME280;51514;52.206;5.114;2023-02-07T05:09:04;104066.50;;;1.82;83.90
64886;BME280;51514;52.206;5.114;2023-02-07T05:11:29;104066.50;;;1.82;84.05
64886;BME280;51514;52.206;5.114;2023-02-07T05:13:55;104073.50;;;1.87;83.54
64886;BME280;51514;52.206;5.114;2023-02-07T05:16:20;104070.03;;;1.83;83.93
64886;BME280;51514;52.206;5.114;2023-02-07T05:18:45;104076.16;;;1.87;83.37
64886;BME280;51514;52.206;5.114;2023-02-07T05:21:11;104074.41;;;1.86;82.23
64886;BME280;51514;52.206;5.114;2023-02-07T05:23:36;104080.69;;;1.81;82.29
64886;BME280;51514;52.206;5.114;2023-02-07T05:26:01;104070.97;;;1.80;81.41
64886;BME280;51514;52.206;5.114;2023-02-07T05:28:27;104081.56;;;1.82;81.02
64886;BME280;51514;52.206;5.114;2023-02-07T05:30:54;104080.69;;;1.83;81.51
64886;BME280;51514;52.206;5.114;2023-02-07T05:33:20;104082.41;;;1.84;81.45
64886;BME280;51514;52.206;5.114;2023-02-07T05:35:45;104083.28;;;1.84;80.72
64886;BME280;51514;52.206;5.114;2023-02-07T05:38:13;104080.69;;;1.83;80.38
64886;BME280;51514;52.206;5.114;2023-02-07T05:40:40;104080.69;;;1.81;81.33
64886;BME280;51514;52.206;5.114;2023-02-07T05:43:06;104080.72;;;1.78;80.66
64886;BME280;51514;52.206;5.114;2023-02-07T05:45:32;104081.66;;;1.74;81.16
64886;BME280;51514;52.206;5.114;2023-02-07T05:47:57;104087.03;;;1.73;80.71
64886;BME280;51514;52.206;5.114;2023-02-07T05:50:24;104095.88;;;1.73;81.32
64886;BME280;51514;52.206;5.114;2023-02-07T05:52:50;104104.81;;;1.69;81.87
64886;BME280;51514;52.206;5.114;2023-02-07T05:55:16;104100.38;;;1.68;80.21
64886;BME280;51514;52.206;5.114;2023-02-07T05:57:43;104096.00;;;1.64;80.31
64886;BME280;51514;52.206;5.114;2023-02-07T06:00:13;104101.34;;;1.63;80.70
64886;BME280;51514;52.206;5.114;2023-02-07T06:02:40;104096.00;;;1.64;80.84
64886;BME280;51514;52.206;5.114;2023-02-07T06:05:07;104098.66;;;1.64;80.66
64886;BME280;51514;52.206;5.114;2023-02-07T06:07:33;104104.88;;;1.63;80.37
64886;BME280;51514;52.206;5.114;2023-02-07T06:09:58;104103.19;;;1.59;79.89
64886;BME280;51514;52.206;5.114;2023-02-07T06:12:23;104092.56;;;1.56;79.92
64886;BME280;51514;52.206;5.114;2023-02-07T06:14:49;104090.81;;;1.55;80.31
64886;BME280;51514;52.206;5.114;2023-02-07T06:17:14;104098.75;;;1.58;79.86
64886;BME280;51514;52.206;5.114;2023-02-07T06:19:39;104097.03;;;1.54;79.72
64886;BME280;51514;52.206;5.114;2023-02-07T06:22:05;104097.03;;;1.53;80.58
64886;BME280;51514;52.206;5.114;2023-02-07T06:24:30;104090.84;;;1.54;79.60
64886;BME280;51514;52.206;5.114;2023-02-07T06:26:56;104094.50;;;1.45;80.21
64886;BME280;51514;52.206;5.114;2023-02-07T06:29:21;104090.91;;;1.51;80.57
64886;BME280;51514;52.206;5.114;2023-02-07T06:31:46;104091.72;;;1.54;79.77
64886;BME280;51514;52.206;5.114;2023-02-07T06:34:12;104092.56;;;1.56;79.95
64886;BME280;51514;52.206;5.114;2023-02-07T06:36:37;104099.69;;;1.54;79.36
64886;BME280;51514;52.206;5.114;2023-02-07T06:39:03;104094.47;;;1.48;79.57
64886;BME280;51514;52.206;5.114;2023-02-07T06:41:28;104094.59;;;1.39;80.46
64886;BME280;51514;52.206;5.114;2023-02-07T06:43:55;104107.00;;;1.38;80.14
64886;BME280;51514;52.206;5.114;2023-02-07T06:46:20;104093.72;;;1.37;80.20
64886;BME280;51514;52.206;5.114;2023-02-07T06:48:46;104103.47;;;1.38;80.04
64886;BME280;51514;52.206;5.114;2023-02-07T06:51:11;104100.81;;;1.38;79.68
64886;BME280;51514;52.206;5.114;2023-02-07T06:53:36;104115.88;;;1.39;79.97
64886;BME280;51514;52.206;5.114;2023-02-07T06:56:02;104109.84;;;1.22;79.35
64886;BME280;51514;52.206;5.114;2023-02-07T06:58:27;104116.94;;;1.23;80.14
64886;BME280;51514;52.206;5.114;2023-02-07T07:00:53;104114.25;;;1.24;79.79
64886;BME280;51514;52.206;5.114;2023-02-07T07:03:18;104123.09;;;1.28;79.55
64886;BME280;51514;52.206;5.114;2023-02-07T07:05:44;104117.78;;;1.28;79.51
64886;BME280;51514;52.206;5.114;2023-02-07T07:08:10;104120.44;;;1.26;78.85
64886;BME280;51514;52.206;5.114;2023-02-07T07:10:36;104120.47;;;1.23;78.71
64886;BME280;51514;52.206;5.114;2023-02-07T07:13:02;104126.66;;;1.24;78.86
64886;BME280;51514;52.206;5.114;2023-02-07T07:15:28;104131.97;;;1.25;78.66
64886;BME280;51514;52.206;5.114;2023-02-07T07:17:53;104137.28;;;1.27;78.45
64886;BME280;51514;52.206;5.114;2023-02-07T07:20:18;104117.81;;;1.25;78.28
64886;BME280;51514;52.206;5.114;2023-02-07T07:22:44;104116.94;;;1.23;78.30
64886;BME280;51514;52.206;5.114;2023-02-07T07:25:10;104120.50;;;1.20;78.43
64886;BME280;51514;52.206;5.114;2023-02-07T07:27:35;104121.44;;;1.18;78.83
64886;BME280;51514;52.206;5.114;2023-02-07T07:30:00;104122.31;;;1.18;79.04
64886;BME280;51514;52.206;5.114;2023-02-07T07:32:26;104125.81;;;1.20;79.21
64886;BME280;51514;52.206;5.114;2023-02-07T07:34:51;104127.53;;;1.26;79.13
64886;BME280;51514;52.206;5.114;2023-02-07T07:37:16;104121.31;;;1.30;79.78
64886;BME280;51514;52.206;5.114;2023-02-07T07:39:42;104125.66;;;1.34;79.44
64886;BME280;51514;52.206;5.114;2023-02-07T07:42:08;104138.03;;;1.38;79.29
64886;BME280;51514;52.206;5.114;2023-02-07T07:44:34;104127.34;;;1.41;79.16
64886;BME280;51514;52.206;5.114;2023-02-07T07:46:59;104124.53;;;1.53;79.19
64886;BME280;51514;52.206;5.114;2023-02-07T07:49:25;104135.06;;;1.62;79.28
64886;BME280;51514;52.206;5.114;2023-02-07T07:51:50;104139.38;;;1.69;78.97
64886;BME280;51514;52.206;5.114;2023-02-07T07:54:15;104139.28;;;1.75;79.07
64886;BME280;51514;52.206;5.114;2023-02-07T07:56:41;104154.31;;;1.81;78.93
64886;BME280;51514;52.206;5.114;2023-02-07T07:59:06;104143.53;;;1.90;79.41
64886;BME280;51514;52.206;5.114;2023-02-07T08:01:31;104138.81;;;2.07;78.75
64886;BME280;51514;52.206;5.114;2023-02-07T08:03:57;104143.97;;;2.19;78.34
64886;BME280;51514;52.206;5.114;2023-02-07T08:06:22;104135.66;;;2.39;78.03
64886;BME280;51514;52.206;5.114;2023-02-07T08:08:47;104152.19;;;2.60;77.38
64886;BME280;51514;52.206;5.114;2023-02-07T08:11:13;104145.69;;;2.76;77.14
64886;BME280;51514;52.206;5.114;2023-02-07T08:13:38;104152.50;;;2.92;77.16
64886;BME280;51514;52.206;5.114;2023-02-07T08:16:04;104150.38;;;3.09;76.62
64886;BME280;51514;52.206;5.114;2023-02-07T08:18:35;104149.28;;;3.21;76.05
64886;BME280;51514;52.206;5.114;2023-02-07T08:21:00;104149.97;;;3.30;75.34
64886;BME280;51514;52.206;5.114;2023-02-07T08:23:26;104151.41;;;3.47;75.45
64886;BME280;51514;52.206;5.114;2023-02-07T08:25:51;104143.94;;;3.64;74.89
64886;BME280;51514;52.206;5.114;2023-02-07T08:28:17;104147.34;;;3.71;74.96
64886;BME280;51514;52.206;5.114;2023-02-07T08:30:42;104148.88;;;3.81;74.03
64886;BME280;51514;52.206;5.114;2023-02-07T08:33:09;104139.63;;;3.97;74.28
64886;BME280;51514;52.206;5.114;2023-02-07T08:35:35;104142.97;;;4.07;73.53
64886;BME280;51514;52.206;5.114;2023-02-07T08:38:00;104146.19;;;4.21;73.70
64886;BME280;51514;52.206;5.114;2023-02-07T08:40:26;104143.38;;;4.27;72.70
64886;BME280;51514;52.206;5.114;2023-02-07T08:42:51;104148.47;;;4.36;73.19
64886;BME280;51514;52.206;5.114;2023-02-07T08:45:17;104149.25;;;4.41;73.66
64886;BME280;51514;52.206;5.114;2023-02-07T08:47:44;104158.88;;;4.48;73.00
64886;BME280;51514;52.206;5.114;2023-02-07T08:50:11;104165.91;;;4.52;73.33
64886;BME280;51514;52.206;5.114;2023-02-07T08:52:38;104160.34;;;4.60;73.13
64886;BME280;51514;52.206;5.114;2023-02-07T08:55:04;104156.84;;;4.58;72.64
64886;BME280;51514;52.206;5.114;2023-02-07T08:57:30;104161.22;;;4.60;72.93
64886;BME280;51514;52.206;5.114;2023-02-07T08:59:55;104157.44;;;4.69;72.83
64886;BME280;51514;52.206;5.114;2023-02-07T09:02:20;104153.75;;;4.74;72.46
64886;BME280;51514;52.206;5.114;2023-02-07T09:04:46;104154.53;;;4.78;72.04
64886;BME280;51514;52.206;5.114;2023-02-07T09:07:12;104156.25;;;4.81;72.20
64886;BME280;51514;52.206;5.114;2023-02-07T09:09:38;104150.69;;;4.88;72.19
64886;BME280;51514;52.206;5.114;2023-02-07T09:12:03;104161.94;;;5.01;72.53
64886;BME280;51514;52.206;5.114;2023-02-07T09:14:29;104154.69;;;5.06;72.39
64886;BME280;51514;52.206;5.114;2023-02-07T09:16:54;104157.34;;;5.06;72.27
64886;BME280;51514;52.206;5.114;2023-02-07T09:19:20;104157.31;;;5.07;71.50
64886;BME280;51514;52.206;5.114;2023-02-07T09:21:45;104152.09;;;5.03;71.38
64886;BME280;51514;52.206;5.114;2023-02-07T09:24:11;104152.09;;;5.03;71.41
64886;BME280;51514;52.206;5.114;2023-02-07T09:26:36;104152.84;;;5.08;71.75
64886;BME280;51514;52.206;5.114;2023-02-07T09:29:04;104151.81;;;5.12;71.40
64886;BME280;51514;52.206;5.114;2023-02-07T09:31:30;104145.28;;;5.22;71.92
64886;BME280;51514;52.206;5.114;2023-02-07T09:33:55;104150.56;;;5.25;71.77
64886;BME280;51514;52.206;5.114;2023-02-07T09:36:23;104144.38;;;5.23;71.18
64886;BME280;51514;52.206;5.114;2023-02-07T09:38:49;104143.38;;;5.27;71.15
64886;BME280;51514;52.206;5.114;2023-02-07T09:47:14;104149.88;;;5.49;71.87
64886;BME280;51514;52.206;5.114;2023-02-07T09:49:50;104137.97;;;5.60;71.43
64886;BME280;51514;52.206;5.114;2023-02-07T09:52:40;104139.47;;;5.68;71.26
64886;BME280;51514;52.206;5.114;2023-02-07T09:55:17;104130.44;;;5.72;69.96
64886;BME280;51514;52.206;5.114;2023-02-07T09:57:46;104141.91;;;5.76;70.11
64886;BME280;51514;52.206;5.114;2023-02-07T10:00:28;104147.19;;;5.79;70.10
64886;BME280;51514;52.206;5.114;2023-02-07T10:02:57;104145.25;;;5.84;70.08
64886;BME280;51514;52.206;5.114;2023-02-07T10:05:39;104155.81;;;5.90;69.28
64886;BME280;51514;52.206;5.114;2023-02-07T10:08:11;104154.00;;;5.91;69.58
64886;BME280;51514;52.206;5.114;2023-02-07T10:18:41;104154.69;;;6.25;69.61
64886;BME280;51514;52.206;5.114;2023-02-07T10:21:31;104164.28;;;6.32;69.78
64886;BME280;51514;52.206;5.114;2023-02-07T10:26:46;104163.00;;;6.44;67.63
64886;BME280;51514;52.206;5.114;2023-02-07T10:31:53;104172.50;;;6.54;68.53
64886;BME280;51514;52.206;5.114;2023-02-07T10:34:26;104163.31;;;6.61;67.54
64886;BME280;51514;52.206;5.114;2023-02-07T10:36:55;104164.13;;;6.63;66.71
64886;BME280;51514;52.206;5.114;2023-02-07T10:39:32;104171.16;;;6.67;66.88
64886;BME280;51514;52.206;5.114;2023-02-07T10:42:00;104169.13;;;6.74;67.36
64886;BME280;51514;52.206;5.114;2023-02-07T10:44:25;104153.88;;;6.76;66.59
64886;BME280;51514;52.206;5.114;2023-02-07T10:47:02;104164.31;;;6.83;66.83
64886;BME280;51514;52.206;5.114;2023-02-07T10:49:31;104168.72;;;6.86;65.95
64886;BME280;51514;52.206;5.114;2023-02-07T10:52:00;104176.66;;;6.89;65.38
64886;BME280;51514;52.206;5.114;2023-02-07T10:54:27;104175.00;;;6.85;65.10
64886;BME280;51514;52.206;5.114;2023-02-07T10:56:55;104171.50;;;6.83;64.75
64886;BME280;51514;52.206;5.114;2023-02-07T11:05:03;104155.94;;;6.92;65.74
64886;BME280;51514;52.206;5.114;2023-02-07T11:07:30;104153.75;;;7.04;64.00
64886;BME280;51514;52.206;5.114;2023-02-07T11:10:19;104153.84;;;7.02;62.31
64886;BME280;51514;52.206;5.114;2023-02-07T11:12:54;104154.44;;;7.10;62.77
64886;BME280;51514;52.206;5.114;2023-02-07T11:15:22;104152.25;;;7.21;63.73
64886;BME280;51514;52.206;5.114;2023-02-07T11:17:52;104154.63;;;7.29;63.36
64886;BME280;51514;52.206;5.114;2023-02-07T11:20:31;104150.00;;;7.34;63.48
64886;BME280;51514;52.206;5.114;2023-02-07T11:22:58;104145.25;;;7.41;64.21
64886;BME280;51514;52.206;5.114;2023-02-07T11:25:52;104150.63;;;7.41;58.21
64886;BME280;51514;52.206;5.114;2023-02-07T11:28:26;104154.19;;;7.41;60.75
64886;BME280;51514;52.206;5.114;2023-02-07T11:30:57;104146.59;;;7.52;61.89
64886;BME280;51514;52.206;5.114;2023-02-07T11:33:28;104142.63;;;7.62;61.17
64886;BME280;51514;52.206;5.114;2023-02-07T11:36:20;104141.47;;;7.69;60.12
64886;BME280;51514;52.206;5.114;2023-02-07T11:38:54;104143.22;;;7.70;58.07
64886;BME280;51514;52.206;5.114;2023-02-07T11:41:23;104138.09;;;7.64;58.45
64886;BME280;51514;52.206;5.114;2023-02-07T11:44:14;104140.66;;;7.67;57.05
64886;BME280;51514;52.206;5.114;2023-02-07T11:46:41;104125.66;;;7.62;57.17
64886;BME280;51514;52.206;5.114;2023-02-07T11:49:21;104129.63;;;7.52;56.78
64886;BME280;51514;52.206;5.114;2023-02-07T11:51:52;104122.75;;;7.45;57.98
64886;BME280;51514;52.206;5.114;2023-02-07T11:54:18;104123.31;;;7.53;59.79
64886;BME280;51514;52.206;5.114;2023-02-07T11:56:51;104127.88;;;7.51;59.36
64886;BME280;51514;52.206;5.114;2023-02-07T11:59:23;104116.09;;;7.55;59.10
64886;BME280;51514;52.206;5.114;2023-02-07T12:02:10;104116.50;;;7.44;58.27
64886;BME280;51514;52.206;5.114;2023-02-07T12:04:40;104104.88;;;7.44;59.95
64886;BME280;51514;52.206;5.114;2023-02-07T12:07:20;104104.75;;;7.47;59.81
64886;BME280;51514;52.206;5.114;2023-02-07T12:09:55;104107.16;;;7.54;59.31
64886;BME280;51514;52.206;5.114;2023-02-07T12:15:26;104111.41;;;7.37;58.67
64886;BME280;51514;52.206;5.114;2023-02-07T12:18:06;104109.00;;;7.29;59.09
64886;BME280;51514;52.206;5.114;2023-02-07T12:20:40;104101.19;;;7.23;59.38
64886;BME280;51514;52.206;5.114;2023-02-07T12:23:25;104120.44;;;7.11;58.54
64886;BME280;51514;52.206;5.114;2023-02-07T12:26:01;104117.75;;;7.11;59.44
64886;BME280;51514;52.206;5.114;2023-02-07T12:28:33;104120.25;;;7.15;59.73
64886;BME280;51514;52.206;5.114;2023-02-07T12:31:09;104118.09;;;7.25;60.37
64886;BME280;51514;52.206;5.114;2023-02-07T12:33:43;104115.66;;;7.19;59.31
64886;BME280;51514;52.206;5.114;2023-02-07T12:36:32;104115.31;;;7.28;59.16
64886;BME280;51514;52.206;5.114;2023-02-07T12:39:19;104111.47;;;7.35;59.05
64886;BME280;51514;52.206;5.114;2023-02-07T12:44:41;104112.63;;;7.51;58.97
64886;BME280;51514;52.206;5.114;2023-02-07T12:50:47;104111.34;;;7.38;59.09
64886;BME280;51514;52.206;5.114;2023-02-07T12:58:17;104096.06;;;7.40;59.03
64886;BME280;51514;52.206;5.114;2023-02-07T13:01:07;104096.13;;;7.39;58.23
64886;BME280;51514;52.206;5.114;2023-02-07T13:06:29;104091.97;;;7.30;57.25
64886;BME280;51514;52.206;5.114;2023-02-07T13:11:52;104084.84;;;7.29;58.76
64886;BME280;51514;52.206;5.114;2023-02-07T13:14:27;104079.50;;;7.29;57.09
64886;BME280;51514;52.206;5.114;2023-02-07T13:20:04;104082.38;;;7.24;56.69
64886;BME280;51514;52.206;5.114;2023-02-07T13:22:48;104076.22;;;7.21;57.71
64886;BME280;51514;52.206;5.114;2023-02-07T13:25:23;104068.13;;;7.22;56.93
64886;BME280;51514;52.206;5.114;2023-02-07T13:27:52;104064.41;;;7.25;57.42
64886;BME280;51514;52.206;5.114;2023-02-07T13:30:19;104062.56;;;7.27;58.00
64886;BME280;51514;52.206;5.114;2023-02-07T13:32:46;104068.75;;;7.29;58.06
64886;BME280;51514;52.206;5.114;2023-02-07T13:35:20;104068.66;;;7.32;57.15
64886;BME280;51514;52.206;5.114;2023-02-07T13:40:27;104059.53;;;7.36;57.96
64886;BME280;51514;52.206;5.114;2023-02-07T13:43:08;104058.66;;;7.36;56.61
64886;BME280;51514;52.206;5.114;2023-02-07T13:51:09;104047.91;;;7.36;57.45
64886;BME280;51514;52.206;5.114;2023-02-07T13:56:32;104045.00;;;7.42;57.37
64886;BME280;51514;52.206;5.114;2023-02-07T13:59:33;104049.66;;;7.37;57.58
64886;BME280;51514;52.206;5.114;2023-02-07T14:07:34;104050.53;;;7.37;58.23
64886;BME280;51514;52.206;5.114;2023-02-07T14:10:02;104044.28;;;7.37;58.69
64886;BME280;51514;52.206;5.114;2023-02-07T14:12:30;104047.16;;;7.32;58.59
64886;BME280;51514;52.206;5.114;2023-02-07T14:25:40;104058.66;;;7.36;58.50
64886;BME280;51514;52.206;5.114;2023-02-07T14:28:28;104057.66;;;7.38;58.38
64886;BME280;51514;52.206;5.114;2023-02-07T14:31:00;104062.97;;;7.40;58.79
64886;BME280;51514;52.206;5.114;2023-02-07T14:33:36;104057.81;;;7.35;57.82
64886;BME280;51514;52.206;5.114;2023-02-07T14:36:16;104056.09;;;7.32;57.91
64886;BME280;51514;52.206;5.114;2023-02-07T14:39:21;104055.34;;;7.29;57.73
64886;BME280;51514;52.206;5.114;2023-02-07T14:41:49;104061.75;;;7.25;58.90
64886;BME280;51514;52.206;5.114;2023-02-07T14:44:47;104051.00;;;7.25;57.30
64886;BME280;51514;52.206;5.114;2023-02-07T14:47:25;104051.25;;;7.19;57.71
64886;BME280;51514;52.206;5.114;2023-02-07T14:49:55;104044.03;;;7.21;57.94
64886;BME280;51514;52.206;5.114;2023-02-07T14:52:33;104042.03;;;7.26;56.96
64886;BME280;51514;52.206;5.114;2023-02-07T14:55:06;104037.59;;;7.25;56.22
64886;BME280;51514;52.206;5.114;2023-02-07T14:57:43;104039.47;;;7.23;56.74
64886;BME280;51514;52.206;5.114;2023-02-07T15:02:51;104025.28;;;7.19;55.27